Time;durP1;ratioP1;P1;durP2;ratioP2;P2;SDS_P1;SDS_P2;PMS_P1;PMS_P2;Temp;Humidity;BMP_temperature;BMP_pressure;BME280_temperature;BME280_humidity;BME280_pressure;Samples;Min_cycle;Max_cycle;Signal;HPM_P1;HPM_P2
2023/04/23 00:00:13;;;;;;;8.13;2.05;;;10.50;99.90;;;;;;5034124;28;20073;-84
2023/04/23 00:02:41;;;;;;;8.05;2.13;;;10.50;99.90;;;;;;5035888;28;20049;-84
2023/04/23 00:05:08;;;;;;;7.43;2.10;;;10.50;99.90;;;;;;5035239;28;20076;-84
2023/04/23 00:07:35;;;;;;;11.32;2.08;;;10.50;99.90;;;;;;5034117;28;20045;-81
2023/04/23 00:10:04;;;;;;;11.55;2.00;;;10.50;99.90;;;;;;5035118;28;20140;-82
2023/04/23 00:12:31;;;;;;;7.25;2.10;;;10.50;99.90;;;;;;5035096;28;20059;-84
2023/04/23 00:14:57;;;;;;;7.68;1.90;;;10.50;99.90;;;;;;5033736;28;20064;-82
2023/04/23 00:17:24;;;;;;;8.88;2.05;;;10.60;99.90;;;;;;5035671;28;20041;-83
2023/04/23 00:19:51;;;;;;;7.85;1.67;;;10.60;99.90;;;;;;5034767;28;20045;-83
2023/04/23 00:22:19;;;;;;;9.32;2.03;;;10.60;99.90;;;;;;5035407;28;20073;-83
2023/04/23 00:24:45;;;;;;;4.85;1.20;;;10.60;99.90;;;;;;5035444;28;20116;-82
2023/04/23 00:27:16;;;;;;;6.82;1.60;;;10.50;99.90;;;;;;5017498;28;20448;-83
2023/04/23 00:29:45;;;;;;;9.15;1.70;;;10.50;99.90;;;;;;5034620;28;20050;-83
2023/04/23 00:32:13;;;;;;;6.70;1.60;;;10.60;99.90;;;;;;5034103;28;20037;-82
2023/04/23 00:34:40;;;;;;;11.48;1.95;;;10.60;99.90;;;;;;5028059;28;20046;-80
2023/04/23 00:37:07;;;;;;;9.55;1.60;;;10.50;99.90;;;;;;5014506;28;20420;-81
2023/04/23 00:39:36;;;;;;;3.72;1.30;;;10.60;99.90;;;;;;5014343;28;20045;-83
2023/04/23 00:42:09;;;;;;;7.80;1.92;;;10.60;99.90;;;;;;5013379;28;20050;-82
2023/04/23 00:44:36;;;;;;;4.13;1.13;;;10.60;99.90;;;;;;5014118;28;20148;-83
2023/04/23 00:47:03;;;;;;;4.30;1.13;;;10.60;99.90;;;;;;5013802;28;20042;-81
2023/04/23 00:49:29;;;;;;;5.75;1.38;;;10.60;99.90;;;;;;5015358;28;20421;-84
2023/04/23 00:51:56;;;;;;;5.40;1.92;;;10.60;99.90;;;;;;5014331;28;20046;-83
2023/04/23 00:54:23;;;;;;;10.93;1.65;;;10.60;99.90;;;;;;4997049;28;20046;-84
2023/04/23 00:56:49;;;;;;;6.43;1.73;;;10.60;99.90;;;;;;5013574;28;20052;-81
2023/04/23 00:59:16;;;;;;;8.52;1.35;;;10.50;99.90;;;;;;5015206;28;20061;-84
2023/04/23 01:01:44;;;;;;;7.28;1.52;;;10.50;99.90;;;;;;5014649;28;20044;-81
2023/04/23 01:04:11;;;;;;;10.38;1.60;;;10.50;99.90;;;;;;5015259;28;20464;-82
2023/04/23 01:06:38;;;;;;;7.47;1.80;;;10.50;99.90;;;;;;4997071;28;20073;-84
2023/04/23 01:09:05;;;;;;;10.20;2.25;;;10.50;99.90;;;;;;5015096;28;20060;-84
2023/04/23 01:11:32;;;;;;;6.00;1.63;;;10.50;99.90;;;;;;5014071;28;20448;-82
2023/04/23 01:13:59;;;;;;;7.22;1.63;;;10.50;99.90;;;;;;4996837;28;20058;-82
2023/04/23 01:16:25;;;;;;;5.88;1.70;;;10.50;99.90;;;;;;4997894;28;20065;-84
2023/04/23 01:18:52;;;;;;;8.20;1.50;;;10.50;99.90;;;;;;5015151;28;20034;-83
2023/04/23 01:21:19;;;;;;;5.88;1.60;;;10.50;99.90;;;;;;4996731;28;20042;-84
2023/04/23 01:23:46;;;;;;;8.32;1.70;;;10.50;99.90;;;;;;5014151;28;20069;-83
2023/04/23 01:26:13;;;;;;;14.40;1.73;;;10.50;99.90;;;;;;5014866;28;20064;-82
2023/04/23 01:28:40;;;;;;;9.98;1.73;;;10.50;99.90;;;;;;5013825;28;20461;-82
2023/04/23 01:31:07;;;;;;;5.60;1.50;;;10.50;99.90;;;;;;5014350;28;20061;-81
2023/04/23 01:33:33;;;;;;;10.52;2.10;;;10.50;99.90;;;;;;5012686;28;20069;-83
2023/04/23 01:36:00;;;;;;;6.47;1.90;;;10.50;99.90;;;;;;5014054;28;20057;-82
2023/04/23 01:38:27;;;;;;;7.05;1.85;;;10.50;99.90;;;;;;5013711;28;20057;-82
2023/04/23 01:40:54;;;;;;;13.32;1.80;;;10.50;99.90;;;;;;4996387;28;20050;-82
2023/04/23 01:43:21;;;;;;;5.38;1.50;;;10.50;99.90;;;;;;5014254;28;20112;-82
2023/04/23 01:45:47;;;;;;;10.43;1.52;;;10.50;99.90;;;;;;4997426;28;20046;-82
2023/04/23 01:48:14;;;;;;;7.05;1.60;;;10.50;99.90;;;;;;5012714;28;20054;-82
2023/04/23 01:50:41;;;;;;;6.20;1.50;;;10.50;99.90;;;;;;5013773;28;20042;-81
2023/04/23 01:53:08;;;;;;;11.68;2.22;;;10.50;99.90;;;;;;5013601;28;20576;-80
2023/04/23 01:55:35;;;;;;;10.13;1.58;;;10.50;99.90;;;;;;5013417;28;20053;-83
2023/04/23 01:58:01;;;;;;;9.32;1.90;;;10.50;99.90;;;;;;5013682;28;20069;-83
2023/04/23 02:00:28;;;;;;;5.15;1.30;;;10.50;99.90;;;;;;5012809;28;20050;-83
2023/04/23 02:02:55;;;;;;;4.35;1.20;;;10.50;99.90;;;;;;5013611;28;20050;-83
2023/04/23 02:05:21;;;;;;;6.60;1.45;;;10.50;99.90;;;;;;4997408;28;20053;-83
2023/04/23 02:07:48;;;;;;;6.00;1.15;;;10.50;99.90;;;;;;5013441;28;20133;-83
2023/04/23 02:10:15;;;;;;;7.43;1.60;;;10.50;99.90;;;;;;5017387;28;20038;-82
2023/04/23 02:12:42;;;;;;;6.22;1.27;;;10.60;99.90;;;;;;5017411;28;20041;-83
2023/04/23 02:15:08;;;;;;;7.97;1.65;;;10.60;99.90;;;;;;5016262;28;20464;-82
2023/04/23 02:17:35;;;;;;;3.88;1.17;;;10.60;99.90;;;;;;5017962;28;20069;-83
2023/04/23 02:20:02;;;;;;;5.28;1.30;;;10.50;99.90;;;;;;5016204;28;20038;-84
2023/04/23 02:22:28;;;;;;;5.55;1.40;;;10.60;99.90;;;;;;5017147;28;20052;-84
2023/04/23 02:24:55;;;;;;;5.60;1.50;;;10.60;99.90;;;;;;5017023;28;20046;-84
2023/04/23 02:27:22;;;;;;;7.40;1.63;;;10.50;99.90;;;;;;5016943;28;20042;-80
2023/04/23 02:29:49;;;;;;;9.52;2.22;;;10.50;99.90;;;;;;5000641;28;20220;-83
2023/04/23 02:32:15;;;;;;;8.88;1.70;;;10.50;99.90;;;;;;5000599;28;20468;-85
2023/04/23 02:34:42;;;;;;;6.18;1.63;;;10.50;99.90;;;;;;5016708;28;20508;-81
2023/04/23 02:37:09;;;;;;;13.38;2.67;;;10.50;99.90;;;;;;5000896;28;20046;-82
2023/04/23 02:39:37;;;;;;;6.47;1.67;;;10.50;99.90;;;;;;5016969;28;20580;-82
2023/04/23 02:42:04;;;;;;;8.20;1.92;;;10.50;99.90;;;;;;5015735;28;20046;-81
2023/04/23 02:44:31;;;;;;;10.90;1.90;;;10.50;99.90;;;;;;5016784;28;20046;-81
2023/04/23 02:46:58;;;;;;;10.30;1.95;;;10.40;99.90;;;;;;5015735;28;20050;-83
2023/04/23 02:49:25;;;;;;;9.85;1.60;;;10.40;99.90;;;;;;5017266;28;20042;-82
2023/04/23 02:51:52;;;;;;;13.65;1.90;;;10.40;99.90;;;;;;5016565;28;20075;-83
2023/04/23 02:54:19;;;;;;;12.68;2.30;;;10.40;99.90;;;;;;4999181;28;20038;-81
2023/04/23 02:56:46;;;;;;;8.90;1.70;;;10.40;99.90;;;;;;5017661;28;20546;-85
2023/04/23 02:59:12;;;;;;;5.53;1.60;;;10.40;99.90;;;;;;5016449;28;20038;-84
2023/04/23 03:01:40;;;;;;;8.15;1.58;;;10.40;99.90;;;;;;5015402;28;20129;-85
2023/04/23 03:04:08;;;;;;;11.20;1.83;;;10.40;99.90;;;;;;5000802;28;20053;-82
2023/04/23 03:06:36;;;;;;;7.18;1.58;;;10.40;99.90;;;;;;4999195;28;20084;-84
2023/04/23 03:09:02;;;;;;;9.70;1.60;;;10.30;99.90;;;;;;5016500;28;20046;-81
2023/04/23 03:11:29;;;;;;;8.23;1.48;;;10.30;99.90;;;;;;5016093;28;20100;-81
2023/04/23 03:13:57;;;;;;;8.32;1.42;;;10.40;99.90;;;;;;5015206;28;20515;-83
2023/04/23 03:16:24;;;;;;;9.57;1.60;;;10.30;99.90;;;;;;5016423;28;20069;-83
2023/04/23 03:18:53;;;;;;;11.02;1.80;;;10.30;99.90;;;;;;5015924;28;20046;-82
2023/04/23 03:21:19;;;;;;;8.07;1.80;;;10.30;99.90;;;;;;5014308;28;20042;-84
2023/04/23 03:23:46;;;;;;;8.18;1.92;;;10.30;99.90;;;;;;4999911;28;20045;-83
2023/04/23 03:26:13;;;;;;;10.18;1.55;;;10.20;99.90;;;;;;5016878;28;20065;-85
2023/04/23 03:28:40;;;;;;;6.43;1.52;;;10.20;99.90;;;;;;5015238;28;20476;-84
2023/04/23 03:31:07;;;;;;;9.82;1.48;;;10.20;99.90;;;;;;4999939;28;20073;-82
2023/04/23 03:33:33;;;;;;;6.45;1.63;;;10.20;99.90;;;;;;5014832;28;20088;-82
2023/04/23 03:36:01;;;;;;;12.30;1.55;;;10.20;99.90;;;;;;5015933;28;20089;-83
2023/04/23 03:38:31;;;;;;;6.88;1.75;;;10.20;99.90;;;;;;4999953;28;20033;-81
2023/04/23 03:40:59;;;;;;;4.95;1.33;;;10.20;99.90;;;;;;5014679;28;20076;-81
2023/04/23 03:43:26;;;;;;;14.15;1.95;;;10.20;99.90;;;;;;5015899;28;20064;-82
2023/04/23 03:45:59;;;;;;;7.70;1.40;;;10.20;99.90;;;;;;5016525;28;20038;-84
2023/04/23 03:48:28;;;;;;;10.68;2.08;;;10.20;99.90;;;;;;5014548;28;20050;-81
2023/04/23 03:50:55;;;;;;;5.97;1.63;;;10.20;99.90;;;;;;5015536;28;20046;-82
2023/04/23 03:53:40;;;;;;;7.00;1.45;;;10.30;99.90;;;;;;5000833;28;20046;-82
2023/04/23 03:56:25;;;;;;;4.75;1.33;;;10.20;99.90;;;;;;5016079;28;20487;-84
2023/04/23 03:59:18;;;;;;;9.85;1.90;;;10.20;99.90;;;;;;5011531;28;20057;-82
2023/04/23 04:01:47;;;;;;;10.88;2.15;;;10.30;99.90;;;;;;5014450;28;20484;-82
2023/04/23 04:04:14;;;;;;;6.97;1.52;;;10.30;99.90;;;;;;5015153;28;20052;-81
2023/04/23 04:06:42;;;;;;;9.15;1.95;;;10.20;99.90;;;;;;4998230;28;20045;-82
2023/04/23 04:09:08;;;;;;;8.02;1.55;;;10.20;99.90;;;;;;5015016;28;20046;-81
2023/04/23 04:11:35;;;;;;;11.02;1.83;;;10.20;99.90;;;;;;5014981;28;20464;-83
2023/04/23 04:14:02;;;;;;;15.20;2.03;;;10.20;99.90;;;;;;5014029;28;20037;-81
2023/04/23 04:16:29;;;;;;;5.85;1.65;;;10.20;99.90;;;;;;4998699;28;20408;-81
2023/04/23 04:18:55;;;;;;;9.95;1.73;;;10.20;99.90;;;;;;5015255;28;20034;-82
2023/04/23 04:21:22;;;;;;;7.53;1.70;;;10.10;99.90;;;;;;5013881;28;20046;-82
2023/04/23 04:23:49;;;;;;;11.15;1.90;;;10.10;99.90;;;;;;5014845;28;20073;-82
2023/04/23 04:26:17;;;;;;;10.82;2.45;;;10.10;99.90;;;;;;5014824;28;20049;-82
2023/04/23 04:28:44;;;;;;;11.95;2.08;;;10.10;99.90;;;;;;5013883;28;20104;-83
2023/04/23 04:31:11;;;;;;;13.52;2.15;;;10.10;99.90;;;;;;4998325;28;20120;-81
2023/04/23 04:33:38;;;;;;;14.27;2.55;;;10.10;99.90;;;;;;5013675;28;20042;-84
2023/04/23 04:36:07;;;;;;;14.30;2.53;;;10.00;99.90;;;;;;5015568;28;20069;-84
2023/04/23 04:38:36;;;;;;;11.63;2.47;;;10.00;99.90;;;;;;5014639;28;20519;-81
2023/04/23 04:41:03;;;;;;;10.13;2.05;;;10.00;99.90;;;;;;5014501;28;20068;-83
2023/04/23 04:43:31;;;;;;;16.13;1.85;;;10.00;99.90;;;;;;4998415;28;20369;-84
2023/04/23 04:45:58;;;;;;;8.40;2.05;;;9.90;99.90;;;;;;5014611;28;20037;-85
2023/04/23 04:48:25;;;;;;;10.52;2.08;;;9.90;99.90;;;;;;5013299;28;20042;-84
2023/04/23 04:50:51;;;;;;;13.07;2.22;;;9.90;99.90;;;;;;5015876;28;20042;-81
2023/04/23 04:53:18;;;;;;;16.35;2.08;;;9.90;99.90;;;;;;5013522;28;20420;-83
2023/04/23 04:55:45;;;;;;;6.55;1.85;;;9.90;99.90;;;;;;5015365;28;20069;-83
2023/04/23 04:58:11;;;;;;;9.27;2.13;;;10.00;99.90;;;;;;5014580;28;20060;-82
2023/04/23 05:00:38;;;;;;;9.52;1.73;;;10.00;99.90;;;;;;5013406;28;20041;-83
2023/04/23 05:03:05;;;;;;;9.38;1.75;;;10.00;99.90;;;;;;5014224;28;20057;-82
2023/04/23 05:05:32;;;;;;;4.85;1.70;;;10.00;99.90;;;;;;5014440;28;20461;-81
2023/04/23 05:08:00;;;;;;;12.93;2.35;;;10.00;99.90;;;;;;5013433;28;20125;-81
2023/04/23 05:10:27;;;;;;;9.82;2.05;;;10.00;99.90;;;;;;5014447;28;20056;-82
2023/04/23 05:12:54;;;;;;;10.15;1.70;;;10.00;99.90;;;;;;5014192;28;20041;-82
2023/04/23 05:15:21;;;;;;;8.38;1.83;;;10.00;99.90;;;;;;4996594;28;20433;-84
2023/04/23 05:17:52;;;;;;;11.25;2.25;;;10.00;99.90;;;;;;5014087;28;20045;-83
2023/04/23 05:20:18;;;;;;;14.00;2.60;;;10.00;99.90;;;;;;5013912;28;20062;-83
2023/04/23 05:22:45;;;;;;;8.55;2.30;;;10.00;99.90;;;;;;4997876;28;20108;-82
2023/04/23 05:25:12;;;;;;;16.35;2.35;;;10.00;99.90;;;;;;5015188;28;20042;-83
2023/04/23 05:27:38;;;;;;;13.27;2.13;;;10.00;99.90;;;;;;5013006;28;20041;-83
2023/04/23 05:30:05;;;;;;;13.85;2.10;;;10.00;99.90;;;;;;5015095;28;20056;-81
2023/04/23 05:32:31;;;;;;;11.35;2.15;;;10.00;99.90;;;;;;5015066;28;20547;-83
2023/04/23 05:35:02;;;;;;;9.25;1.80;;;10.00;99.90;;;;;;4996691;28;20149;-83
2023/04/23 05:37:30;;;;;;;5.80;1.63;;;10.10;99.90;;;;;;5015095;28;20553;-81
2023/04/23 05:40:01;;;;;;;8.45;2.03;;;10.00;99.90;;;;;;5012791;28;20056;-83
2023/04/23 05:42:28;;;;;;;13.00;2.10;;;10.00;99.90;;;;;;5016818;28;20045;-82
2023/04/23 05:44:54;;;;;;;7.90;2.20;;;10.00;99.90;;;;;;5036939;28;20053;-83
2023/04/23 05:47:21;;;;;;;8.35;2.13;;;10.00;99.90;;;;;;5020484;28;20080;-83
2023/04/23 05:49:48;;;;;;;8.55;1.60;;;10.00;99.90;;;;;;5037745;28;20045;-81
2023/04/23 05:52:14;;;;;;;11.55;2.10;;;10.00;99.90;;;;;;5037429;28;20411;-83
2023/04/23 05:54:41;;;;;;;6.60;1.80;;;10.00;99.90;;;;;;5036473;28;20371;-84
2023/04/23 05:57:08;;;;;;;13.70;2.00;;;10.00;99.90;;;;;;5020842;28;20099;-84
2023/04/23 05:59:35;;;;;;;12.95;1.83;;;10.00;99.90;;;;;;5021205;28;20037;-84
2023/04/23 06:02:02;;;;;;;6.90;1.85;;;10.10;99.90;;;;;;5036145;28;20056;-84
2023/04/23 06:04:28;;;;;;;9.10;2.03;;;10.10;99.90;;;;;;5037279;28;20060;-82
2023/04/23 06:06:55;;;;;;;12.50;2.05;;;10.20;99.90;;;;;;5037363;28;20045;-84
2023/04/23 06:09:22;;;;;;;7.40;1.80;;;10.20;99.90;;;;;;5037996;28;20049;-83
2023/04/23 06:11:49;;;;;;;8.32;2.00;;;10.20;99.90;;;;;;5037394;28;20064;-82
2023/04/23 06:14:16;;;;;;;10.07;1.77;;;10.30;99.90;;;;;;5019472;28;20045;-81
2023/04/23 06:16:42;;;;;;;7.65;1.65;;;10.40;99.90;;;;;;5020434;28;20037;-83
2023/04/23 06:19:10;;;;;;;5.28;2.05;;;10.40;99.90;;;;;;5037004;28;20041;-84
2023/04/23 06:21:37;;;;;;;10.07;1.95;;;10.50;99.90;;;;;;5036899;28;20103;-83
2023/04/23 06:24:04;;;;;;;10.32;2.13;;;10.60;99.90;;;;;;5020484;28;20379;-81
2023/04/23 06:26:30;;;;;;;7.45;1.60;;;10.60;99.90;;;;;;5035544;28;20136;-83
2023/04/23 06:29:03;;;;;;;7.82;1.80;;;10.70;99.90;;;;;;5037129;28;20034;-84
2023/04/23 06:31:35;;;;;;;15.52;1.90;;;10.70;99.90;;;;;;5038119;28;20073;-79
2023/04/23 06:34:02;;;;;;;12.65;1.83;;;10.70;99.90;;;;;;5040155;28;20042;-81
2023/04/23 06:36:28;;;;;;;8.38;2.10;;;10.80;99.90;;;;;;5024912;28;20068;-82
2023/04/23 06:38:55;;;;;;;8.45;1.90;;;10.80;99.90;;;;;;5042295;28;20037;-84
2023/04/23 06:41:22;;;;;;;8.50;2.13;;;10.80;99.90;;;;;;5042833;28;20107;-82
2023/04/23 06:44:01;;;;;;;10.43;2.28;;;10.80;99.90;;;;;;5025838;28;20038;-83
2023/04/23 06:46:34;;;;;;;7.85;1.80;;;10.80;99.90;;;;;;5038139;28;20155;-84
2023/04/23 06:49:01;;;;;;;11.85;1.65;;;10.90;99.90;;;;;;5038848;28;20037;-84
2023/04/23 06:51:28;;;;;;;8.38;2.35;;;10.90;99.90;;;;;;5037196;28;20371;-81
2023/04/23 06:53:54;;;;;;;7.28;2.10;;;11.00;99.90;;;;;;5036058;28;20041;-82
2023/04/23 06:56:21;;;;;;;13.63;2.08;;;11.10;99.90;;;;;;5034813;28;20054;-80
2023/04/23 06:58:49;;;;;;;8.10;2.00;;;11.10;99.90;;;;;;5036647;28;20041;-81
2023/04/23 07:01:19;;;;;;;6.25;1.70;;;11.20;99.90;;;;;;5019551;28;20046;-81
2023/04/23 07:03:48;;;;;;;9.43;2.10;;;11.20;99.90;;;;;;5019624;28;20361;-81
2023/04/23 07:06:15;;;;;;;9.30;2.08;;;11.30;99.90;;;;;;5036963;28;20045;-81
2023/04/23 07:08:41;;;;;;;13.75;1.88;;;11.50;99.90;;;;;;5034893;28;20049;-82
2023/04/23 07:11:09;;;;;;;8.63;1.80;;;11.70;99.90;;;;;;5050856;28;20060;-81
2023/04/23 07:13:36;;;;;;;6.75;1.63;;;12.00;99.90;;;;;;5054984;28;20065;-81
2023/04/23 07:16:02;;;;;;;10.98;1.85;;;12.20;99.90;;;;;;5056305;28;20056;-82
2023/04/23 07:18:29;;;;;;;10.90;1.85;;;12.20;99.90;;;;;;5039279;28;20391;-81
2023/04/23 07:20:56;;;;;;;6.95;1.83;;;12.20;99.90;;;;;;5054557;28;20132;-81
2023/04/23 07:23:22;;;;;;;12.18;2.10;;;12.10;99.90;;;;;;5055717;28;20124;-81
2023/04/23 07:25:49;;;;;;;7.75;1.98;;;12.10;99.90;;;;;;5055518;28;20051;-83
2023/04/23 07:28:16;;;;;;;14.30;2.50;;;12.10;99.90;;;;;;5054643;28;20067;-83
2023/04/23 07:30:42;;;;;;;7.75;1.75;;;12.20;99.90;;;;;;5056410;28;20056;-82
2023/04/23 07:33:09;;;;;;;9.50;1.90;;;12.10;99.90;;;;;;5054757;28;20056;-83
2023/04/23 07:35:36;;;;;;;7.85;2.20;;;12.20;99.90;;;;;;5056107;28;20055;-82
2023/04/23 07:38:03;;;;;;;9.77;1.88;;;12.10;99.90;;;;;;5055393;28;20045;-81
2023/04/23 07:40:29;;;;;;;10.70;2.10;;;12.00;99.90;;;;;;5054214;28;20047;-82
2023/04/23 07:42:58;;;;;;;7.57;1.83;;;12.00;99.90;;;;;;5027215;28;20041;-83
2023/04/23 07:45:24;;;;;;;10.05;1.90;;;12.00;99.90;;;;;;5018071;28;20075;-83
2023/04/23 07:47:51;;;;;;;10.85;2.03;;;12.00;99.90;;;;;;5014833;28;20395;-83
2023/04/23 07:50:18;;;;;;;9.75;2.08;;;12.10;99.90;;;;;;5014318;28;20038;-83
2023/04/23 07:52:45;;;;;;;9.32;2.03;;;12.10;99.90;;;;;;4998442;28;20057;-84
2023/04/23 07:55:11;;;;;;;8.57;1.65;;;12.20;99.90;;;;;;5014600;28;20037;-82
2023/04/23 07:57:38;;;;;;;10.60;1.70;;;12.20;99.90;;;;;;4997844;28;20050;-81
2023/04/23 08:00:08;;;;;;;10.95;1.77;;;12.20;99.90;;;;;;5014008;28;20048;-83
2023/04/23 08:02:37;;;;;;;12.45;2.10;;;12.30;99.90;;;;;;5030517;28;20144;-84
2023/04/23 08:05:04;;;;;;;6.78;1.88;;;12.30;99.90;;;;;;5033686;28;20088;-84
2023/04/23 08:07:31;;;;;;;8.55;2.05;;;12.30;99.90;;;;;;5032362;28;20053;-83
2023/04/23 08:10:01;;;;;;;11.73;1.85;;;12.30;99.90;;;;;;5017591;28;20057;-81
2023/04/23 08:12:29;;;;;;;12.50;2.10;;;12.30;99.90;;;;;;5021471;28;20050;-80
2023/04/23 08:14:56;;;;;;;10.38;1.95;;;12.30;99.90;;;;;;5027493;28;20041;-80
2023/04/23 08:17:30;;;;;;;11.32;1.75;;;12.30;99.90;;;;;;5035186;28;20513;-85
2023/04/23 08:19:56;;;;;;;20.52;2.20;;;12.30;99.90;;;;;;5023234;28;20029;-84
2023/04/23 08:22:23;;;;;;;5.13;1.83;;;12.30;99.90;;;;;;5018967;28;20042;-82
2023/04/23 08:24:50;;;;;;;9.32;2.03;;;12.30;99.90;;;;;;5013200;28;20361;-83
2023/04/23 08:27:16;;;;;;;9.15;2.00;;;12.30;99.90;;;;;;5012785;28;20077;-87
2023/04/23 08:29:43;;;;;;;8.23;1.95;;;12.30;99.90;;;;;;4997222;28;20049;-82
2023/04/23 08:32:10;;;;;;;8.32;1.88;;;12.40;99.90;;;;;;4997065;28;20045;-84
2023/04/23 08:34:37;;;;;;;7.82;2.00;;;12.40;99.90;;;;;;5013066;28;20081;-86
2023/04/23 08:37:03;;;;;;;8.15;1.98;;;12.40;99.90;;;;;;4997193;28;20380;-83
2023/04/23 08:39:31;;;;;;;10.95;2.38;;;12.30;99.90;;;;;;5012968;28;20092;-83
2023/04/23 08:41:58;;;;;;;19.80;2.30;;;12.50;99.90;;;;;;5018696;28;20520;-83
2023/04/23 08:44:25;;;;;;;9.68;1.90;;;12.50;99.90;;;;;;5025744;28;20056;-90
2023/04/23 08:46:53;;;;;;;9.93;1.90;;;12.50;99.90;;;;;;4994755;28;20120;-85
2023/04/23 08:52:05;;;;;;;7.47;1.75;;;12.50;99.90;;;;;;5034264;28;20474;-89
2023/04/23 08:54:32;;;;;;;8.30;2.00;;;12.70;99.90;;;;;;5015771;28;20052;-90
2023/04/23 08:57:00;;;;;;;9.00;1.85;;;12.70;99.90;;;;;;5033106;28;20053;-88
2023/04/23 08:59:27;;;;;;;7.30;2.03;;;12.70;99.90;;;;;;5017026;28;20049;-88
2023/04/23 09:01:54;;;;;;;9.25;1.60;;;12.70;99.90;;;;;;5015512;28;20052;-89
2023/04/23 09:04:24;;;;;;;11.15;2.00;;;12.60;99.90;;;;;;5016640;28;20049;-85
2023/04/23 09:06:51;;;;;;;11.32;1.50;;;12.60;99.90;;;;;;5015560;28;20075;-84
2023/04/23 09:09:17;;;;;;;7.07;1.58;;;12.70;99.90;;;;;;5032997;28;20057;-84
2023/04/23 09:11:44;;;;;;;8.13;1.98;;;12.60;99.90;;;;;;5032823;28;20045;-85
2023/04/23 09:14:11;;;;;;;11.98;1.77;;;12.60;99.90;;;;;;5032466;28;20049;-84
2023/04/23 09:16:39;;;;;;;7.40;1.75;;;12.60;99.90;;;;;;5015968;28;20060;-85
2023/04/23 09:19:07;;;;;;;7.35;1.48;;;12.70;99.90;;;;;;5031679;28;20045;-85
2023/04/23 09:21:34;;;;;;;8.02;1.50;;;12.80;99.90;;;;;;5031333;28;20037;-85
2023/04/23 09:24:01;;;;;;;7.07;1.70;;;12.80;99.90;;;;;;5032575;28;20041;-84
2023/04/23 09:26:28;;;;;;;6.75;1.40;;;12.80;99.90;;;;;;5032703;28;20142;-85
2023/04/23 09:28:54;;;;;;;8.77;1.88;;;12.80;99.90;;;;;;5032324;28;20041;-84
2023/04/23 09:31:21;;;;;;;7.45;1.80;;;12.70;99.90;;;;;;5032098;28;20046;-84
2023/04/23 09:33:48;;;;;;;8.10;1.40;;;12.70;99.90;;;;;;5014878;28;20054;-83
2023/04/23 09:36:15;;;;;;;11.50;1.70;;;12.60;99.90;;;;;;5032216;28;20037;-84
2023/04/23 09:38:41;;;;;;;11.30;1.63;;;12.40;99.90;;;;;;5033072;28;20112;-84
2023/04/23 09:41:08;;;;;;;10.57;1.95;;;12.30;99.90;;;;;;5031078;28;20057;-84
2023/04/23 09:43:35;;;;;;;7.65;1.52;;;12.30;99.90;;;;;;5032327;28;20437;-84
2023/04/23 09:46:01;;;;;;;10.05;1.73;;;12.10;99.90;;;;;;5031900;28;20451;-83
2023/04/23 09:48:28;;;;;;;5.38;1.40;;;12.10;99.90;;;;;;5031863;28;20045;-83
2023/04/23 09:50:55;;;;;;;4.82;1.50;;;12.10;99.90;;;;;;5015839;28;20046;-83
2023/04/23 09:53:21;;;;;;;7.85;1.88;;;12.10;99.90;;;;;;5031081;28;20049;-83
2023/04/23 09:55:48;;;;;;;3.38;1.40;;;12.10;99.90;;;;;;5032989;28;20037;-83
2023/04/23 09:58:15;;;;;;;5.10;1.63;;;12.00;99.90;;;;;;5033051;28;20128;-83
2023/04/23 10:00:41;;;;;;;9.35;1.88;;;12.10;99.90;;;;;;5014364;28;20377;-81
2023/04/23 10:03:09;;;;;;;5.57;1.50;;;12.20;99.90;;;;;;5032993;28;20107;-82
2023/04/23 10:05:36;;;;;;;8.55;1.20;;;12.20;99.90;;;;;;5032357;28;20049;-83
2023/04/23 10:08:23;;;;;;;3.50;1.65;;;12.30;99.90;;;;;;5030717;28;20045;-82
2023/04/23 10:10:50;;;;;;;6.40;1.50;;;12.40;99.90;;;;;;5032319;28;20464;-82
2023/04/23 10:13:35;;;;;;;5.22;1.40;;;12.50;99.90;;;;;;5031092;28;20068;-83
2023/04/23 10:16:02;;;;;;;4.28;1.38;;;12.50;99.90;;;;;;5031585;28;20052;-83
2023/04/23 10:18:47;;;;;;;3.53;1.20;;;12.50;99.90;;;;;;5032456;28;20099;-81
2023/04/23 10:21:15;;;;;;;5.22;1.23;;;12.50;99.90;;;;;;5030985;28;20049;-81
2023/04/23 10:23:41;;;;;;;3.85;1.40;;;12.50;99.90;;;;;;5031417;28;20136;-82
2023/04/23 10:26:08;;;;;;;3.83;1.30;;;12.50;99.90;;;;;;5032967;28;20083;-82
2023/04/23 10:28:35;;;;;;;1.55;0.90;;;12.50;99.90;;;;;;5031682;28;20061;-82
2023/04/23 10:31:02;;;;;;;3.78;1.05;;;12.50;99.90;;;;;;5035638;28;20471;-82
2023/04/23 10:33:29;;;;;;;3.38;1.15;;;12.40;99.90;;;;;;5035576;28;20414;-83
2023/04/23 10:36:05;;;;;;;4.97;1.20;;;12.40;99.90;;;;;;5036361;28;20041;-82
2023/04/23 10:38:32;;;;;;;3.85;1.30;;;12.30;99.90;;;;;;5034661;28;20061;-82
2023/04/23 10:40:58;;;;;;;4.65;1.25;;;12.20;99.90;;;;;;5033520;28;20400;-82
2023/04/23 10:43:25;;;;;;;1.75;0.95;;;12.30;99.90;;;;;;5035433;28;20064;-83
2023/04/23 10:45:52;;;;;;;2.83;1.00;;;12.30;99.90;;;;;;5034849;28;20056;-82
2023/04/23 10:48:19;;;;;;;1.50;0.90;;;12.30;99.90;;;;;;5034128;28;20050;-84
2023/04/23 10:50:46;;;;;;;3.83;1.10;;;12.50;99.90;;;;;;5018622;28;20053;-83
2023/04/23 10:53:33;;;;;;;3.00;1.10;;;12.50;99.90;;;;;;5034472;28;20099;-84
2023/04/23 10:55:59;;;;;;;3.35;1.02;;;12.60;99.90;;;;;;5035329;28;20044;-84
2023/04/23 10:58:26;;;;;;;2.58;1.00;;;12.60;99.90;;;;;;5035006;28;20409;-83
2023/04/23 11:00:56;;;;;;;6.05;1.23;;;12.50;99.90;;;;;;5054192;28;20056;-85
2023/04/23 11:03:27;;;;;;;5.03;1.23;;;12.50;99.90;;;;;;5024039;28;20069;-84
2023/04/23 11:06:15;;;;;;;5.18;1.20;;;12.50;99.90;;;;;;5021137;28;20050;-86
2023/04/23 11:08:46;;;;;;;2.40;1.05;;;12.50;99.90;;;;;;5032783;28;20443;-84
2023/04/23 11:11:13;;;;;;;2.35;0.90;;;12.40;99.90;;;;;;5016323;28;20063;-84
2023/04/23 11:13:40;;;;;;;2.97;0.90;;;12.20;99.90;;;;;;5023319;28;20053;-86
2023/04/23 11:16:07;;;;;;;4.43;1.30;;;12.10;99.90;;;;;;5025217;28;20344;-82
2023/04/23 11:18:38;;;;;;;5.00;1.20;;;12.00;99.90;;;;;;5017135;28;20053;-84
2023/04/23 11:24:15;;;;;;;4.55;1.75;;;11.80;99.90;;;;;;5034479;28;20060;-82
2023/04/23 11:26:41;;;;;;;9.48;2.38;;;11.70;99.90;;;;;;5034325;28;20041;-84
2023/04/23 11:29:14;;;;;;;7.00;2.47;;;11.70;99.90;;;;;;5033583;28;20049;-85
2023/04/23 11:31:41;;;;;;;8.27;2.65;;;11.80;99.90;;;;;;5034372;28;20419;-84
2023/04/23 11:34:27;;;;;;;5.97;1.95;;;12.00;99.90;;;;;;5032768;28;20045;-83
2023/04/23 11:37:04;;;;;;;7.07;2.22;;;12.20;99.90;;;;;;5034051;28;20069;-83
2023/04/23 11:39:36;;;;;;;5.28;2.20;;;12.30;99.90;;;;;;5034948;28;20412;-84
2023/04/23 11:42:05;;;;;;;5.85;2.50;;;12.60;99.90;;;;;;5031735;28;20054;-83
2023/04/23 11:44:32;;;;;;;7.57;2.55;;;12.70;99.90;;;;;;5033235;28;20049;-84
2023/04/23 11:46:59;;;;;;;7.18;2.22;;;12.90;99.90;;;;;;5033079;28;20041;-83
2023/04/23 11:49:26;;;;;;;8.80;2.10;;;12.80;99.90;;;;;;5033698;28;20132;-84
2023/04/23 11:51:56;;;;;;;6.88;1.98;;;12.70;99.90;;;;;;5033533;28;20041;-83
2023/04/23 11:54:28;;;;;;;8.27;2.53;;;12.60;99.90;;;;;;5033915;28;20115;-83
2023/04/23 11:56:55;;;;;;;6.75;2.28;;;12.50;99.90;;;;;;5033681;28;20046;-84
2023/04/23 11:59:22;;;;;;;4.90;1.98;;;12.30;99.90;;;;;;5042204;28;20046;-84
2023/04/23 12:01:49;;;;;;;6.25;2.05;;;12.30;99.90;;;;;;5022333;28;20034;-84
2023/04/23 12:04:16;;;;;;;6.43;2.13;;;12.30;99.90;;;;;;5025309;28;20046;-84
2023/04/23 12:06:43;;;;;;;4.30;1.70;;;12.20;99.90;;;;;;5024172;28;20131;-85
2023/04/23 12:09:10;;;;;;;6.43;1.60;;;12.20;99.90;;;;;;5043971;28;20046;-86
2023/04/23 12:11:37;;;;;;;4.80;1.80;;;12.20;99.90;;;;;;5005699;28;20119;-85
2023/04/23 12:14:04;;;;;;;7.93;2.03;;;12.30;99.90;;;;;;5006339;28;20610;-85
2023/04/23 12:16:50;;;;;;;5.38;2.10;;;12.20;99.90;;;;;;5007257;28;20120;-84
2023/04/23 12:26:05;;;;;;;4.78;1.55;;;11.80;99.90;;;;;;5022570;28;20470;-83
2023/04/23 12:29:16;;;;;;;5.63;1.70;;;12.00;99.90;;;;;;4940911;29;20082;-85
2023/04/23 12:31:43;;;;;;;7.07;1.70;;;12.10;99.90;;;;;;4937449;29;20039;-85
2023/04/23 12:34:15;;;;;;;4.05;1.42;;;12.20;99.90;;;;;;4950454;29;20526;-84
2023/04/23 12:36:42;;;;;;;5.75;1.70;;;12.20;99.90;;;;;;4937291;29;20069;-84
2023/04/23 12:39:09;;;;;;;5.30;2.10;;;12.30;99.90;;;;;;4932626;29;20035;-86
2023/04/23 12:41:36;;;;;;;4.60;1.70;;;12.40;99.90;;;;;;4937185;29;20051;-86
2023/04/23 12:44:05;;;;;;;4.95;1.88;;;12.30;99.90;;;;;;4921714;29;20098;-88
2023/04/23 12:46:34;;;;;;;4.80;1.90;;;12.30;99.90;;;;;;4936876;29;20063;-84
2023/04/23 12:49:01;;;;;;;5.15;1.95;;;12.40;99.90;;;;;;4912923;29;20067;-86
2023/04/23 12:51:28;;;;;;;9.30;2.33;;;12.60;99.90;;;;;;4937316;29;20043;-84
2023/04/23 12:53:55;;;;;;;5.97;2.30;;;12.70;99.90;;;;;;4952451;28;20095;-85
2023/04/23 12:56:21;;;;;;;5.68;2.20;;;12.80;99.90;;;;;;4920990;29;20047;-85
2023/04/23 12:58:51;;;;;;;5.65;2.10;;;12.90;99.90;;;;;;4923696;29;20122;-85
2023/04/23 13:01:36;;;;;;;;;;;;;;;;;;;;;